sensor_id;sensor_type;location;lat;lon;timestamp;P1;durP1;ratioP1;P2;durP2;ratioP2
42724;SDS011;28369;44.046;23.014;2023-04-25T00:15:30;17.73;;;15.05;;
42724;SDS011;28369;44.046;23.014;2023-04-25T00:27:26;19.08;;;17.13;;
42724;SDS011;28369;44.046;23.014;2023-04-25T00:33:13;23.58;;;18.30;;
42724;SDS011;28369;44.046;23.014;2023-04-25T00:35:39;25.67;;;19.02;;
42724;SDS011;28369;44.046;23.014;2023-04-25T00:38:04;22.08;;;19.80;;
42724;SDS011;28369;44.046;23.014;2023-04-25T00:40:30;25.42;;;21.20;;
42724;SDS011;28369;44.046;23.014;2023-04-25T00:42:55;24.42;;;21.73;;
42724;SDS011;28369;44.046;23.014;2023-04-25T00:45:21;25.38;;;22.30;;
42724;SDS011;28369;44.046;23.014;2023-04-25T00:47:47;28.67;;;22.70;;
42724;SDS011;28369;44.046;23.014;2023-04-25T00:50:13;25.13;;;22.40;;
42724;SDS011;28369;44.046;23.014;2023-04-25T00:52:43;26.98;;;23.95;;
42724;SDS011;28369;44.046;23.014;2023-04-25T00:55:10;28.33;;;23.85;;
42724;SDS011;28369;44.046;23.014;2023-04-25T00:57:37;28.35;;;22.20;;
42724;SDS011;28369;44.046;23.014;2023-04-25T01:00:04;26.33;;;22.10;;
42724;SDS011;28369;44.046;23.014;2023-04-25T01:02:31;28.23;;;22.75;;
42724;SDS011;28369;44.046;23.014;2023-04-25T01:04:58;30.05;;;24.70;;
42724;SDS011;28369;44.046;23.014;2023-04-25T01:07:23;26.80;;;23.77;;
42724;SDS011;28369;44.046;23.014;2023-04-25T01:09:51;26.30;;;23.33;;
42724;SDS011;28369;44.046;23.014;2023-04-25T01:12:17;31.27;;;23.77;;
42724;SDS011;28369;44.046;23.014;2023-04-25T01:14:42;27.63;;;23.60;;
42724;SDS011;28369;44.046;23.014;2023-04-25T01:17:08;29.10;;;25.98;;
42724;SDS011;28369;44.046;23.014;2023-04-25T01:19:34;33.15;;;25.27;;
42724;SDS011;28369;44.046;23.014;2023-04-25T01:22:00;29.42;;;24.67;;
42724;SDS011;28369;44.046;23.014;2023-04-25T01:24:26;31.67;;;26.23;;
42724;SDS011;28369;44.046;23.014;2023-04-25T01:26:51;31.35;;;24.67;;
42724;SDS011;28369;44.046;23.014;2023-04-25T01:29:19;27.90;;;24.60;;
42724;SDS011;28369;44.046;23.014;2023-04-25T01:31:45;28.02;;;23.48;;
42724;SDS011;28369;44.046;23.014;2023-04-25T01:34:14;33.53;;;25.90;;
42724;SDS011;28369;44.046;23.014;2023-04-25T01:36:40;32.22;;;27.02;;
42724;SDS011;28369;44.046;23.014;2023-04-25T01:39:06;33.92;;;26.70;;
42724;SDS011;28369;44.046;23.014;2023-04-25T01:41:32;34.45;;;27.02;;
42724;SDS011;28369;44.046;23.014;2023-04-25T01:43:57;31.58;;;28.13;;
42724;SDS011;28369;44.046;23.014;2023-04-25T01:46:23;38.05;;;28.02;;
42724;SDS011;28369;44.046;23.014;2023-04-25T01:48:49;37.78;;;28.73;;
42724;SDS011;28369;44.046;23.014;2023-04-25T01:51:14;38.75;;;31.10;;
42724;SDS011;28369;44.046;23.014;2023-04-25T01:53:40;39.85;;;30.20;;
42724;SDS011;28369;44.046;23.014;2023-04-25T01:56:07;33.00;;;27.10;;
42724;SDS011;28369;44.046;23.014;2023-04-25T01:58:33;34.92;;;29.42;;
42724;SDS011;28369;44.046;23.014;2023-04-25T02:00:58;38.83;;;31.73;;
42724;SDS011;28369;44.046;23.014;2023-04-25T02:03:24;41.05;;;31.83;;
42724;SDS011;28369;44.046;23.014;2023-04-25T02:05:49;34.67;;;30.17;;
42724;SDS011;28369;44.046;23.014;2023-04-25T02:08:15;43.47;;;31.83;;
42724;SDS011;28369;44.046;23.014;2023-04-25T02:10:41;39.30;;;32.97;;
42724;SDS011;28369;44.046;23.014;2023-04-25T02:13:07;41.17;;;32.78;;
42724;SDS011;28369;44.046;23.014;2023-04-25T02:15:32;41.22;;;32.42;;
42724;SDS011;28369;44.046;23.014;2023-04-25T02:17:58;41.35;;;33.30;;
42724;SDS011;28369;44.046;23.014;2023-04-25T02:20:25;43.45;;;34.55;;
42724;SDS011;28369;44.046;23.014;2023-04-25T02:22:50;42.70;;;33.42;;
42724;SDS011;28369;44.046;23.014;2023-04-25T02:25:16;46.25;;;34.40;;
42724;SDS011;28369;44.046;23.014;2023-04-25T02:27:44;45.33;;;33.58;;
42724;SDS011;28369;44.046;23.014;2023-04-25T02:30:10;45.80;;;33.63;;
42724;SDS011;28369;44.046;23.014;2023-04-25T02:32:36;45.97;;;33.90;;
42724;SDS011;28369;44.046;23.014;2023-04-25T02:35:02;46.95;;;33.40;;
42724;SDS011;28369;44.046;23.014;2023-04-25T02:37:29;39.40;;;31.17;;
42724;SDS011;28369;44.046;23.014;2023-04-25T02:39:55;44.75;;;32.53;;
42724;SDS011;28369;44.046;23.014;2023-04-25T02:42:20;40.25;;;32.53;;
42724;SDS011;28369;44.046;23.014;2023-04-25T02:44:45;35.13;;;30.35;;
42724;SDS011;28369;44.046;23.014;2023-04-25T02:47:11;47.03;;;30.88;;
42724;SDS011;28369;44.046;23.014;2023-04-25T02:49:36;42.65;;;31.70;;
42724;SDS011;28369;44.046;23.014;2023-04-25T02:52:02;45.92;;;32.70;;
42724;SDS011;28369;44.046;23.014;2023-04-25T02:54:27;38.95;;;31.13;;
42724;SDS011;28369;44.046;23.014;2023-04-25T02:56:53;41.58;;;30.02;;
42724;SDS011;28369;44.046;23.014;2023-04-25T02:59:18;38.58;;;30.05;;
42724;SDS011;28369;44.046;23.014;2023-04-25T03:01:44;38.58;;;29.48;;
42724;SDS011;28369;44.046;23.014;2023-04-25T03:04:10;41.05;;;30.10;;
42724;SDS011;28369;44.046;23.014;2023-04-25T03:06:35;42.42;;;28.65;;
42724;SDS011;28369;44.046;23.014;2023-04-25T03:09:01;35.63;;;27.05;;
42724;SDS011;28369;44.046;23.014;2023-04-25T03:11:26;39.75;;;27.85;;
42724;SDS011;28369;44.046;23.014;2023-04-25T03:13:52;42.72;;;29.23;;
42724;SDS011;28369;44.046;23.014;2023-04-25T03:16:17;40.25;;;31.63;;
42724;SDS011;28369;44.046;23.014;2023-04-25T03:18:43;40.42;;;27.73;;
42724;SDS011;28369;44.046;23.014;2023-04-25T03:21:08;36.33;;;27.98;;
42724;SDS011;28369;44.046;23.014;2023-04-25T03:23:34;40.08;;;29.75;;
42724;SDS011;28369;44.046;23.014;2023-04-25T03:25:59;33.58;;;26.73;;
42724;SDS011;28369;44.046;23.014;2023-04-25T03:28:25;36.15;;;27.98;;
42724;SDS011;28369;44.046;23.014;2023-04-25T03:30:50;41.78;;;27.60;;
42724;SDS011;28369;44.046;23.014;2023-04-25T03:33:16;39.67;;;27.75;;
42724;SDS011;28369;44.046;23.014;2023-04-25T03:35:41;46.38;;;28.98;;
42724;SDS011;28369;44.046;23.014;2023-04-25T03:38:07;44.78;;;30.30;;
42724;SDS011;28369;44.046;23.014;2023-04-25T03:40:33;31.30;;;25.80;;
42724;SDS011;28369;44.046;23.014;2023-04-25T03:42:59;35.92;;;27.42;;
42724;SDS011;28369;44.046;23.014;2023-04-25T03:45:24;37.90;;;27.08;;
42724;SDS011;28369;44.046;23.014;2023-04-25T03:47:50;40.13;;;31.73;;
42724;SDS011;28369;44.046;23.014;2023-04-25T03:50:15;37.20;;;29.02;;
42724;SDS011;28369;44.046;23.014;2023-04-25T03:52:41;46.17;;;31.13;;
42724;SDS011;28369;44.046;23.014;2023-04-25T03:55:08;39.80;;;28.30;;
42724;SDS011;28369;44.046;23.014;2023-04-25T03:57:33;29.02;;;25.63;;
42724;SDS011;28369;44.046;23.014;2023-04-25T03:59:59;27.63;;;22.30;;
42724;SDS011;28369;44.046;23.014;2023-04-25T04:02:25;44.40;;;23.08;;
42724;SDS011;28369;44.046;23.014;2023-04-25T04:04:50;33.08;;;22.77;;
42724;SDS011;28369;44.046;23.014;2023-04-25T04:07:16;40.00;;;22.15;;
42724;SDS011;28369;44.046;23.014;2023-04-25T04:09:41;62.08;;;24.17;;
42724;SDS011;28369;44.046;23.014;2023-04-25T04:12:07;51.83;;;26.38;;
42724;SDS011;28369;44.046;23.014;2023-04-25T04:14:32;32.50;;;26.75;;
42724;SDS011;28369;44.046;23.014;2023-04-25T04:16:58;33.17;;;26.73;;
42724;SDS011;28369;44.046;23.014;2023-04-25T04:19:23;31.05;;;26.10;;
42724;SDS011;28369;44.046;23.014;2023-04-25T04:21:48;33.47;;;26.60;;
42724;SDS011;28369;44.046;23.014;2023-04-25T04:24:14;32.10;;;27.73;;
42724;SDS011;28369;44.046;23.014;2023-04-25T04:26:41;35.55;;;30.70;;
42724;SDS011;28369;44.046;23.014;2023-04-25T04:29:11;45.95;;;36.60;;
42724;SDS011;28369;44.046;23.014;2023-04-25T04:34:59;33.10;;;27.67;;
42724;SDS011;28369;44.046;23.014;2023-04-25T04:37:24;28.77;;;25.70;;
42724;SDS011;28369;44.046;23.014;2023-04-25T04:39:50;30.90;;;24.40;;
42724;SDS011;28369;44.046;23.014;2023-04-25T04:42:17;30.85;;;23.92;;
42724;SDS011;28369;44.046;23.014;2023-04-25T04:48:07;28.40;;;24.30;;
42724;SDS011;28369;44.046;23.014;2023-04-25T04:53:58;25.75;;;22.73;;
42724;SDS011;28369;44.046;23.014;2023-04-25T04:59:54;25.13;;;22.42;;
42724;SDS011;28369;44.046;23.014;2023-04-25T05:11:16;23.00;;;20.60;;
42724;SDS011;28369;44.046;23.014;2023-04-25T05:19:33;21.95;;;19.75;;
42724;SDS011;28369;44.046;23.014;2023-04-25T05:21:58;22.35;;;20.05;;
42724;SDS011;28369;44.046;23.014;2023-04-25T05:34:18;24.75;;;19.55;;
42724;SDS011;28369;44.046;23.014;2023-04-25T05:36:43;22.08;;;19.60;;
42724;SDS011;28369;44.046;23.014;2023-04-25T05:39:09;32.15;;;24.35;;
42724;SDS011;28369;44.046;23.014;2023-04-25T05:41:35;23.10;;;20.75;;
42724;SDS011;28369;44.046;23.014;2023-04-25T05:44:00;28.15;;;23.75;;
42724;SDS011;28369;44.046;23.014;2023-04-25T05:46:27;23.27;;;20.80;;
42724;SDS011;28369;44.046;23.014;2023-04-25T05:48:52;23.98;;;21.55;;
42724;SDS011;28369;44.046;23.014;2023-04-25T05:51:18;24.02;;;21.52;;
42724;SDS011;28369;44.046;23.014;2023-04-25T05:53:43;24.48;;;20.90;;
42724;SDS011;28369;44.046;23.014;2023-04-25T05:56:09;22.60;;;20.15;;
42724;SDS011;28369;44.046;23.014;2023-04-25T05:58:34;29.52;;;22.45;;
42724;SDS011;28369;44.046;23.014;2023-04-25T06:01:00;26.77;;;22.15;;
42724;SDS011;28369;44.046;23.014;2023-04-25T06:03:26;20.80;;;18.70;;
42724;SDS011;28369;44.046;23.014;2023-04-25T06:05:52;28.20;;;19.52;;
42724;SDS011;28369;44.046;23.014;2023-04-25T06:08:17;20.55;;;18.08;;
42724;SDS011;28369;44.046;23.014;2023-04-25T06:10:42;16.55;;;13.88;;
42724;SDS011;28369;44.046;23.014;2023-04-25T06:13:08;14.07;;;11.65;;
42724;SDS011;28369;44.046;23.014;2023-04-25T06:15:33;13.60;;;10.60;;
42724;SDS011;28369;44.046;23.014;2023-04-25T06:17:59;11.15;;;8.60;;
42724;SDS011;28369;44.046;23.014;2023-04-25T06:20:25;11.02;;;8.23;;
42724;SDS011;28369;44.046;23.014;2023-04-25T06:22:51;9.60;;;8.60;;
42724;SDS011;28369;44.046;23.014;2023-04-25T06:25:17;13.10;;;9.57;;
42724;SDS011;28369;44.046;23.014;2023-04-25T06:27:43;9.57;;;7.85;;
42724;SDS011;28369;44.046;23.014;2023-04-25T06:30:08;8.55;;;7.65;;
42724;SDS011;28369;44.046;23.014;2023-04-25T06:32:34;7.35;;;6.65;;
42724;SDS011;28369;44.046;23.014;2023-04-25T06:35:00;7.13;;;6.22;;
42724;SDS011;28369;44.046;23.014;2023-04-25T06:37:26;4.72;;;4.13;;
42724;SDS011;28369;44.046;23.014;2023-04-25T06:39:51;6.93;;;4.78;;
42724;SDS011;28369;44.046;23.014;2023-04-25T06:42:17;8.27;;;3.42;;
42724;SDS011;28369;44.046;23.014;2023-04-25T06:44:43;5.05;;;2.80;;
42724;SDS011;28369;44.046;23.014;2023-04-25T06:47:08;5.15;;;3.20;;
42724;SDS011;28369;44.046;23.014;2023-04-25T06:49:34;6.60;;;4.30;;
42724;SDS011;28369;44.046;23.014;2023-04-25T06:52:04;4.38;;;3.30;;
42724;SDS011;28369;44.046;23.014;2023-04-25T06:54:29;5.85;;;2.63;;
42724;SDS011;28369;44.046;23.014;2023-04-25T06:56:55;4.60;;;2.13;;
42724;SDS011;28369;44.046;23.014;2023-04-25T06:59:21;1.90;;;1.50;;
42724;SDS011;28369;44.046;23.014;2023-04-25T07:01:52;4.63;;;1.98;;
42724;SDS011;28369;44.046;23.014;2023-04-25T07:07:40;8.30;;;2.30;;
42724;SDS011;28369;44.046;23.014;2023-04-25T07:10:06;5.35;;;2.65;;
42724;SDS011;28369;44.046;23.014;2023-04-25T07:12:32;1.70;;;1.60;;
42724;SDS011;28369;44.046;23.014;2023-04-25T07:14:57;2.55;;;1.55;;
42724;SDS011;28369;44.046;23.014;2023-04-25T07:17:23;3.97;;;2.25;;
42724;SDS011;28369;44.046;23.014;2023-04-25T07:19:48;1.95;;;1.50;;
42724;SDS011;28369;44.046;23.014;2023-04-25T07:22:14;4.85;;;1.70;;
42724;SDS011;28369;44.046;23.014;2023-04-25T07:24:40;3.42;;;1.60;;
42724;SDS011;28369;44.046;23.014;2023-04-25T07:27:05;3.03;;;1.63;;
42724;SDS011;28369;44.046;23.014;2023-04-25T07:29:31;3.22;;;1.92;;
42724;SDS011;28369;44.046;23.014;2023-04-25T07:31:57;4.63;;;2.13;;
42724;SDS011;28369;44.046;23.014;2023-04-25T07:34:22;1.92;;;1.65;;
42724;SDS011;28369;44.046;23.014;2023-04-25T07:36:48;2.15;;;1.33;;
42724;SDS011;28369;44.046;23.014;2023-04-25T07:39:13;2.92;;;2.00;;
42724;SDS011;28369;44.046;23.014;2023-04-25T07:41:44;3.38;;;2.03;;
42724;SDS011;28369;44.046;23.014;2023-04-25T07:47:31;3.17;;;1.23;;
42724;SDS011;28369;44.046;23.014;2023-04-25T07:49:57;2.10;;;1.67;;
42724;SDS011;28369;44.046;23.014;2023-04-25T07:52:22;2.03;;;1.25;;
42724;SDS011;28369;44.046;23.014;2023-04-25T07:54:48;4.85;;;1.40;;
42724;SDS011;28369;44.046;23.014;2023-04-25T08:00:36;2.38;;;1.50;;
42724;SDS011;28369;44.046;23.014;2023-04-25T08:03:02;3.08;;;1.02;;
42724;SDS011;28369;44.046;23.014;2023-04-25T08:05:27;5.82;;;1.52;;
42724;SDS011;28369;44.046;23.014;2023-04-25T08:07:53;1.20;;;1.00;;
42724;SDS011;28369;44.046;23.014;2023-04-25T08:10:19;0.93;;;0.93;;
42724;SDS011;28369;44.046;23.014;2023-04-25T08:12:44;2.03;;;1.10;;
42724;SDS011;28369;44.046;23.014;2023-04-25T08:15:10;2.58;;;1.30;;
42724;SDS011;28369;44.046;23.014;2023-04-25T08:17:35;1.40;;;1.30;;
42724;SDS011;28369;44.046;23.014;2023-04-25T08:20:01;3.97;;;1.70;;
42724;SDS011;28369;44.046;23.014;2023-04-25T08:22:30;3.60;;;1.50;;
42724;SDS011;28369;44.046;23.014;2023-04-25T08:24:55;1.80;;;1.65;;
42724;SDS011;28369;44.046;23.014;2023-04-25T08:27:21;3.17;;;1.35;;
42724;SDS011;28369;44.046;23.014;2023-04-25T08:29:46;3.20;;;1.38;;
42724;SDS011;28369;44.046;23.014;2023-04-25T08:32:12;2.20;;;1.33;;
42724;SDS011;28369;44.046;23.014;2023-04-25T08:34:38;4.10;;;1.20;;
42724;SDS011;28369;44.046;23.014;2023-04-25T08:37:07;2.00;;;1.30;;
42724;SDS011;28369;44.046;23.014;2023-04-25T08:39:33;2.30;;;1.38;;
42724;SDS011;28369;44.046;23.014;2023-04-25T08:41:58;3.10;;;1.40;;
42724;SDS011;28369;44.046;23.014;2023-04-25T08:44:27;2.33;;;1.70;;
42724;SDS011;28369;44.046;23.014;2023-04-25T08:46:52;1.23;;;1.13;;
42724;SDS011;28369;44.046;23.014;2023-04-25T08:49:20;3.53;;;1.20;;
42724;SDS011;28369;44.046;23.014;2023-04-25T08:51:46;1.60;;;1.13;;
42724;SDS011;28369;44.046;23.014;2023-04-25T08:54:12;4.18;;;1.00;;
42724;SDS011;28369;44.046;23.014;2023-04-25T08:56:40;2.92;;;1.20;;
42724;SDS011;28369;44.046;23.014;2023-04-25T08:59:06;4.10;;;1.30;;
42724;SDS011;28369;44.046;23.014;2023-04-25T09:01:33;2.83;;;0.82;;
42724;SDS011;28369;44.046;23.014;2023-04-25T09:04:00;1.05;;;0.70;;
42724;SDS011;28369;44.046;23.014;2023-04-25T09:06:26;1.60;;;0.82;;
42724;SDS011;28369;44.046;23.014;2023-04-25T09:08:53;1.70;;;0.90;;
42724;SDS011;28369;44.046;23.014;2023-04-25T09:11:19;1.95;;;0.80;;
42724;SDS011;28369;44.046;23.014;2023-04-25T09:13:44;1.30;;;1.08;;
42724;SDS011;28369;44.046;23.014;2023-04-25T09:16:10;1.38;;;1.02;;
42724;SDS011;28369;44.046;23.014;2023-04-25T09:18:36;2.17;;;1.10;;
42724;SDS011;28369;44.046;23.014;2023-04-25T09:21:09;3.50;;;0.80;;
42724;SDS011;28369;44.046;23.014;2023-04-25T09:23:40;2.95;;;0.63;;
42724;SDS011;28369;44.046;23.014;2023-04-25T09:26:07;2.00;;;0.70;;
42724;SDS011;28369;44.046;23.014;2023-04-25T09:28:34;0.70;;;0.70;;
42724;SDS011;28369;44.046;23.014;2023-04-25T09:31:00;0.60;;;0.60;;
42724;SDS011;28369;44.046;23.014;2023-04-25T09:33:30;0.93;;;0.73;;
42724;SDS011;28369;44.046;23.014;2023-04-25T09:36:07;1.63;;;1.05;;
42724;SDS011;28369;44.046;23.014;2023-04-25T09:38:40;1.42;;;0.85;;
42724;SDS011;28369;44.046;23.014;2023-04-25T09:41:07;2.97;;;0.85;;
42724;SDS011;28369;44.046;23.014;2023-04-25T09:43:34;2.15;;;0.82;;
42724;SDS011;28369;44.046;23.014;2023-04-25T09:46:00;0.98;;;0.90;;
42724;SDS011;28369;44.046;23.014;2023-04-25T09:48:26;1.30;;;1.20;;
42724;SDS011;28369;44.046;23.014;2023-04-25T09:51:05;0.80;;;0.80;;
42724;SDS011;28369;44.046;23.014;2023-04-25T09:53:33;1.40;;;1.15;;
42724;SDS011;28369;44.046;23.014;2023-04-25T09:56:06;0.93;;;0.93;;
42724;SDS011;28369;44.046;23.014;2023-04-25T09:58:33;1.65;;;1.05;;
42724;SDS011;28369;44.046;23.014;2023-04-25T10:01:01;2.25;;;0.90;;
42724;SDS011;28369;44.046;23.014;2023-04-25T10:03:31;3.53;;;0.90;;
42724;SDS011;28369;44.046;23.014;2023-04-25T10:05:59;1.93;;;0.90;;
42724;SDS011;28369;44.046;23.014;2023-04-25T10:08:30;1.30;;;0.70;;
42724;SDS011;28369;44.046;23.014;2023-04-25T10:11:01;1.92;;;0.80;;
42724;SDS011;28369;44.046;23.014;2023-04-25T10:13:29;8.35;;;2.33;;
42724;SDS011;28369;44.046;23.014;2023-04-25T10:15:59;8.00;;;2.47;;
42724;SDS011;28369;44.046;23.014;2023-04-25T10:18:26;5.47;;;0.90;;
42724;SDS011;28369;44.046;23.014;2023-04-25T10:20:54;3.00;;;1.15;;
42724;SDS011;28369;44.046;23.014;2023-04-25T10:23:21;4.15;;;1.63;;
42724;SDS011;28369;44.046;23.014;2023-04-25T10:28:19;8.27;;;1.30;;
42724;SDS011;28369;44.046;23.014;2023-04-25T10:31:01;1.88;;;1.30;;
42724;SDS011;28369;44.046;23.014;2023-04-25T10:33:33;3.13;;;1.00;;
42724;SDS011;28369;44.046;23.014;2023-04-25T10:36:08;2.78;;;1.10;;
42724;SDS011;28369;44.046;23.014;2023-04-25T10:38:36;1.23;;;1.17;;
42724;SDS011;28369;44.046;23.014;2023-04-25T10:41:03;3.75;;;1.50;;
42724;SDS011;28369;44.046;23.014;2023-04-25T10:48:50;2.75;;;1.58;;
42724;SDS011;28369;44.046;23.014;2023-04-25T10:53:47;2.95;;;1.55;;
42724;SDS011;28369;44.046;23.014;2023-04-25T10:56:25;2.63;;;1.20;;
42724;SDS011;28369;44.046;23.014;2023-04-25T10:59:02;6.45;;;1.40;;
42724;SDS011;28369;44.046;23.014;2023-04-25T11:01:48;5.07;;;1.45;;
42724;SDS011;28369;44.046;23.014;2023-04-25T11:04:24;1.10;;;1.00;;
42724;SDS011;28369;44.046;23.014;2023-04-25T11:13:11;2.42;;;1.10;;
42724;SDS011;28369;44.046;23.014;2023-04-25T11:19:02;2.40;;;0.60;;
42724;SDS011;28369;44.046;23.014;2023-04-25T11:24:49;2.38;;;0.55;;
42724;SDS011;28369;44.046;23.014;2023-04-25T11:27:15;3.85;;;0.60;;
42724;SDS011;28369;44.046;23.014;2023-04-25T11:29:42;1.77;;;0.50;;
42724;SDS011;28369;44.046;23.014;2023-04-25T11:32:07;2.22;;;0.50;;
42724;SDS011;28369;44.046;23.014;2023-04-25T11:34:33;0.40;;;0.40;;
42724;SDS011;28369;44.046;23.014;2023-04-25T11:36:59;1.15;;;0.40;;
42724;SDS011;28369;44.046;23.014;2023-04-25T11:39:27;0.15;;;0.13;;
42724;SDS011;28369;44.046;23.014;2023-04-25T11:41:53;0.57;;;0.57;;
42724;SDS011;28369;44.046;23.014;2023-04-25T11:44:19;0.55;;;0.35;;
42724;SDS011;28369;44.046;23.014;2023-04-25T11:46:45;3.63;;;0.40;;
42724;SDS011;28369;44.046;23.014;2023-04-25T11:49:11;1.10;;;0.43;;
42724;SDS011;28369;44.046;23.014;2023-04-25T11:51:41;1.65;;;0.50;;
42724;SDS011;28369;44.046;23.014;2023-04-25T11:54:08;1.92;;;0.40;;
42724;SDS011;28369;44.046;23.014;2023-04-25T11:56:42;0.57;;;0.40;;
42724;SDS011;28369;44.046;23.014;2023-04-25T12:02:32;3.20;;;0.63;;
42724;SDS011;28369;44.046;23.014;2023-04-25T12:08:23;0.85;;;0.40;;
42724;SDS011;28369;44.046;23.014;2023-04-25T12:14:11;2.42;;;0.70;;
42724;SDS011;28369;44.046;23.014;2023-04-25T12:16:45;2.53;;;0.80;;
42724;SDS011;28369;44.046;23.014;2023-04-25T12:19:18;2.22;;;0.50;;
42724;SDS011;28369;44.046;23.014;2023-04-25T12:21:45;0.70;;;0.70;;
42724;SDS011;28369;44.046;23.014;2023-04-25T12:27:35;2.05;;;1.85;;
42724;SDS011;28369;44.046;23.014;2023-04-25T12:30:01;3.85;;;2.17;;
42724;SDS011;28369;44.046;23.014;2023-04-25T12:32:26;4.53;;;2.60;;
42724;SDS011;28369;44.046;23.014;2023-04-25T12:34:52;4.63;;;2.90;;
42724;SDS011;28369;44.046;23.014;2023-04-25T12:37:17;4.88;;;2.75;;
42724;SDS011;28369;44.046;23.014;2023-04-25T12:39:43;5.32;;;3.08;;
42724;SDS011;28369;44.046;23.014;2023-04-25T12:42:08;3.97;;;2.88;;
42724;SDS011;28369;44.046;23.014;2023-04-25T12:44:36;2.92;;;2.70;;
42724;SDS011;28369;44.046;23.014;2023-04-25T12:47:03;5.25;;;3.97;;
42724;SDS011;28369;44.046;23.014;2023-04-25T12:49:29;5.53;;;3.70;;
42724;SDS011;28369;44.046;23.014;2023-04-25T12:51:54;6.68;;;4.30;;
42724;SDS011;28369;44.046;23.014;2023-04-25T12:54:20;5.00;;;4.60;;
42724;SDS011;28369;44.046;23.014;2023-04-25T12:56:45;6.07;;;4.70;;
42724;SDS011;28369;44.046;23.014;2023-04-25T12:59:11;6.22;;;4.25;;
42724;SDS011;28369;44.046;23.014;2023-04-25T13:01:36;4.28;;;3.88;;
42724;SDS011;28369;44.046;23.014;2023-04-25T13:04:04;6.03;;;4.43;;
42724;SDS011;28369;44.046;23.014;2023-04-25T13:09:51;3.88;;;3.58;;
42724;SDS011;28369;44.046;23.014;2023-04-25T13:20:14;3.40;;;3.10;;
42724;SDS011;28369;44.046;23.014;2023-04-25T13:22:42;3.05;;;2.85;;
42724;SDS011;28369;44.046;23.014;2023-04-25T13:25:08;4.88;;;2.83;;
42724;SDS011;28369;44.046;23.014;2023-04-25T13:27:34;3.63;;;2.83;;
42724;SDS011;28369;44.046;23.014;2023-04-25T13:30:01;3.55;;;3.03;;
42724;SDS011;28369;44.046;23.014;2023-04-25T13:32:35;3.60;;;3.30;;
42724;SDS011;28369;44.046;23.014;2023-04-25T13:35:06;3.97;;;2.88;;
42724;SDS011;28369;44.046;23.014;2023-04-25T13:37:33;3.25;;;2.95;;
42724;SDS011;28369;44.046;23.014;2023-04-25T13:40:00;3.90;;;3.03;;
42724;SDS011;28369;44.046;23.014;2023-04-25T13:42:27;3.20;;;3.00;;
42724;SDS011;28369;44.046;23.014;2023-04-25T13:44:56;4.03;;;3.08;;
42724;SDS011;28369;44.046;23.014;2023-04-25T13:47:22;7.75;;;2.63;;
42724;SDS011;28369;44.046;23.014;2023-04-25T13:49:48;3.47;;;2.60;;
42724;SDS011;28369;44.046;23.014;2023-04-25T13:52:18;2.97;;;2.67;;
42724;SDS011;28369;44.046;23.014;2023-04-25T13:57:37;2.42;;;2.22;;
42724;SDS011;28369;44.046;23.014;2023-04-25T14:00:04;1.95;;;1.85;;
42724;SDS011;28369;44.046;23.014;2023-04-25T14:02:44;2.00;;;1.80;;
42724;SDS011;28369;44.046;23.014;2023-04-25T14:05:09;3.72;;;2.10;;
42724;SDS011;28369;44.046;23.014;2023-04-25T14:07:35;3.78;;;2.08;;
42724;SDS011;28369;44.046;23.014;2023-04-25T14:12:42;3.35;;;1.98;;
42724;SDS011;28369;44.046;23.014;2023-04-25T14:15:08;2.20;;;1.83;;
42724;SDS011;28369;44.046;23.014;2023-04-25T14:17:34;3.38;;;1.95;;
42724;SDS011;28369;44.046;23.014;2023-04-25T14:19:59;2.90;;;1.63;;
42724;SDS011;28369;44.046;23.014;2023-04-25T14:22:32;9.60;;;2.15;;
42724;SDS011;28369;44.046;23.014;2023-04-25T14:24:58;1.50;;;1.40;;
42724;SDS011;28369;44.046;23.014;2023-04-25T14:27:23;1.50;;;1.40;;
42724;SDS011;28369;44.046;23.014;2023-04-25T14:29:49;1.80;;;1.70;;
42724;SDS011;28369;44.046;23.014;2023-04-25T14:32:14;1.98;;;1.70;;
42724;SDS011;28369;44.046;23.014;2023-04-25T14:34:40;4.93;;;2.83;;
42724;SDS011;28369;44.046;23.014;2023-04-25T14:37:06;2.72;;;1.65;;
42724;SDS011;28369;44.046;23.014;2023-04-25T14:39:31;3.55;;;1.85;;
42724;SDS011;28369;44.046;23.014;2023-04-25T14:42:11;2.70;;;1.70;;
42724;SDS011;28369;44.046;23.014;2023-04-25T14:44:37;3.25;;;2.00;;
42724;SDS011;28369;44.046;23.014;2023-04-25T14:47:03;3.42;;;1.90;;
42724;SDS011;28369;44.046;23.014;2023-04-25T14:49:28;2.83;;;2.20;;
42724;SDS011;28369;44.046;23.014;2023-04-25T14:51:54;2.20;;;2.00;;
42724;SDS011;28369;44.046;23.014;2023-04-25T14:54:20;5.82;;;2.65;;
42724;SDS011;28369;44.046;23.014;2023-04-25T14:59:39;3.47;;;2.60;;
42724;SDS011;28369;44.046;23.014;2023-04-25T15:02:05;4.22;;;2.45;;
42724;SDS011;28369;44.046;23.014;2023-04-25T15:04:31;1.55;;;1.45;;
42724;SDS011;28369;44.046;23.014;2023-04-25T15:06:59;7.72;;;1.77;;
42724;SDS011;28369;44.046;23.014;2023-04-25T15:12:47;3.40;;;3.10;;
42724;SDS011;28369;44.046;23.014;2023-04-25T15:28:22;11.00;;;4.55;;
42724;SDS011;28369;44.046;23.014;2023-04-25T15:42:34;5.57;;;4.18;;
42724;SDS011;28369;44.046;23.014;2023-04-25T15:45:04;4.32;;;4.03;;
42724;SDS011;28369;44.046;23.014;2023-04-25T15:50:52;5.75;;;4.70;;
42724;SDS011;28369;44.046;23.014;2023-04-25T15:56:40;8.85;;;7.68;;
42724;SDS011;28369;44.046;23.014;2023-04-25T15:59:05;4.20;;;3.80;;
42724;SDS011;28369;44.046;23.014;2023-04-25T16:01:31;9.25;;;3.33;;
42724;SDS011;28369;44.046;23.014;2023-04-25T16:07:20;3.63;;;2.97;;
42724;SDS011;28369;44.046;23.014;2023-04-25T16:13:09;5.85;;;3.08;;
42724;SDS011;28369;44.046;23.014;2023-04-25T16:15:35;4.20;;;3.35;;
42724;SDS011;28369;44.046;23.014;2023-04-25T16:18:01;3.13;;;2.92;;
42724;SDS011;28369;44.046;23.014;2023-04-25T16:20:26;4.85;;;3.20;;
42724;SDS011;28369;44.046;23.014;2023-04-25T16:22:52;5.65;;;2.80;;
42724;SDS011;28369;44.046;23.014;2023-04-25T16:25:17;3.05;;;2.78;;
42724;SDS011;28369;44.046;23.014;2023-04-25T16:31:12;5.68;;;3.95;;
42724;SDS011;28369;44.046;23.014;2023-04-25T16:37:04;3.88;;;3.50;;
42724;SDS011;28369;44.046;23.014;2023-04-25T16:42:54;3.55;;;2.90;;
42724;SDS011;28369;44.046;23.014;2023-04-25T16:48:41;4.53;;;2.80;;
42724;SDS011;28369;44.046;23.014;2023-04-25T17:00:17;3.67;;;2.65;;
42724;SDS011;28369;44.046;23.014;2023-04-25T17:06:05;4.07;;;2.72;;
42724;SDS011;28369;44.046;23.014;2023-04-25T17:08:31;9.75;;;3.50;;
42724;SDS011;28369;44.046;23.014;2023-04-25T17:10:57;3.28;;;2.97;;
42724;SDS011;28369;44.046;23.014;2023-04-25T17:13:23;2.22;;;2.03;;
42724;SDS011;28369;44.046;23.014;2023-04-25T17:15:49;2.20;;;2.10;;
42724;SDS011;28369;44.046;23.014;2023-04-25T17:18:15;3.15;;;2.35;;
42724;SDS011;28369;44.046;23.014;2023-04-25T17:20:41;7.03;;;2.22;;
42724;SDS011;28369;44.046;23.014;2023-04-25T17:23:06;3.22;;;2.25;;
42724;SDS011;28369;44.046;23.014;2023-04-25T17:25:32;2.58;;;2.30;;
42724;SDS011;28369;44.046;23.014;2023-04-25T17:27:58;6.32;;;2.78;;
42724;SDS011;28369;44.046;23.014;2023-04-25T17:30:24;3.67;;;2.40;;
42724;SDS011;28369;44.046;23.014;2023-04-25T17:32:50;4.18;;;3.08;;
42724;SDS011;28369;44.046;23.014;2023-04-25T17:35:16;8.40;;;6.82;;
42724;SDS011;28369;44.046;23.014;2023-04-25T17:37:42;6.20;;;5.60;;
42724;SDS011;28369;44.046;23.014;2023-04-25T17:40:08;8.13;;;6.82;;
42724;SDS011;28369;44.046;23.014;2023-04-25T17:42:36;6.60;;;5.97;;